sensor_id;sensor_type;location;lat;lon;timestamp;pressure;altitude;pressure_sealevel;temperature;humidity
41515;BME280;27247;48.020;16.720;2023-01-29T00:00:44;100896.47;;;-0.10;93.09
41515;BME280;27247;48.020;16.720;2023-01-29T00:04:54;100893.06;;;-0.12;93.25
41515;BME280;27247;48.020;16.720;2023-01-29T00:09:05;100889.84;;;-0.17;93.42
41515;BME280;27247;48.020;16.720;2023-01-29T00:13:15;100898.81;;;-0.21;93.26
41515;BME280;27247;48.020;16.720;2023-01-29T00:17:25;100896.88;;;-0.17;93.60
41515;BME280;27247;48.020;16.720;2023-01-29T00:21:37;100896.78;;;-0.16;93.31
41515;BME280;27247;48.020;16.720;2023-01-29T00:25:47;100908.38;;;-0.20;93.40
41515;BME280;27247;48.020;16.720;2023-01-29T00:29:58;100910.94;;;-0.18;93.13
41515;BME280;27247;48.020;16.720;2023-01-29T00:34:25;100905.69;;;-0.18;93.49
41515;BME280;27247;48.020;16.720;2023-01-29T00:38:36;100914.56;;;-0.21;93.70
41515;BME280;27247;48.020;16.720;2023-01-29T00:42:47;100913.81;;;-0.23;93.20
41515;BME280;27247;48.020;16.720;2023-01-29T00:47:16;100915.50;;;-0.22;93.24
41515;BME280;27247;48.020;16.720;2023-01-29T00:51:45;100912.03;;;-0.22;93.39
41515;BME280;27247;48.020;16.720;2023-01-29T00:56:15;100912.78;;;-0.20;92.80
41515;BME280;27247;48.020;16.720;2023-01-29T01:00:25;100913.03;;;-0.25;92.66
41515;BME280;27247;48.020;16.720;2023-01-29T01:04:35;100918.44;;;-0.28;92.18
41515;BME280;27247;48.020;16.720;2023-01-29T01:08:46;100914.72;;;-0.24;92.29
41515;BME280;27247;48.020;16.720;2023-01-29T01:13:15;100917.75;;;-0.32;92.10
41515;BME280;27247;48.020;16.720;2023-01-29T01:17:25;100923.94;;;-0.33;91.25
41515;BME280;27247;48.020;16.720;2023-01-29T01:21:35;100921.47;;;-0.36;92.26
41515;BME280;27247;48.020;16.720;2023-01-29T01:25:46;100931.22;;;-0.38;91.61
41515;BME280;27247;48.020;16.720;2023-01-29T01:29:56;100935.53;;;-0.37;91.71
41515;BME280;27247;48.020;16.720;2023-01-29T01:34:07;100928.97;;;-0.45;90.87
41515;BME280;27247;48.020;16.720;2023-01-29T01:38:17;100927.28;;;-0.46;90.48
41515;BME280;27247;48.020;16.720;2023-01-29T01:42:28;100926.66;;;-0.51;90.33
41515;BME280;27247;48.020;16.720;2023-01-29T01:46:41;100907.69;;;-0.56;89.27
41515;BME280;27247;48.020;16.720;2023-01-29T01:50:57;100920.97;;;-0.59;89.37
41515;BME280;27247;48.020;16.720;2023-01-29T01:55:12;100921.34;;;-0.67;89.28
41515;BME280;27247;48.020;16.720;2023-01-29T01:59:25;100917.25;;;-0.73;88.58
41515;BME280;27247;48.020;16.720;2023-01-29T02:03:49;100921.88;;;-0.78;88.76
41515;BME280;27247;48.020;16.720;2023-01-29T02:08:44;100914.63;;;-0.90;88.86
41515;BME280;27247;48.020;16.720;2023-01-29T02:13:15;100918.41;;;-0.95;88.71
41515;BME280;27247;48.020;16.720;2023-01-29T02:17:27;100909.75;;;-0.98;88.80
41515;BME280;27247;48.020;16.720;2023-01-29T02:30:34;100939.47;;;-0.97;88.97
41515;BME280;27247;48.020;16.720;2023-01-29T02:34:54;100945.56;;;-0.97;88.48
41515;BME280;27247;48.020;16.720;2023-01-29T02:39:50;100941.78;;;-0.91;87.96
41515;BME280;27247;48.020;16.720;2023-01-29T02:44:11;100935.69;;;-0.91;87.45
41515;BME280;27247;48.020;16.720;2023-01-29T02:48:29;100939.16;;;-0.91;87.90
41515;BME280;27247;48.020;16.720;2023-01-29T02:52:51;100941.94;;;-0.94;87.66
41515;BME280;27247;48.020;16.720;2023-01-29T02:57:16;100945.34;;;-0.92;87.69
41515;BME280;27247;48.020;16.720;2023-01-29T03:01:30;100945.25;;;-0.90;87.90
41515;BME280;27247;48.020;16.720;2023-01-29T03:10:36;100953.34;;;-0.95;87.02
41515;BME280;27247;48.020;16.720;2023-01-29T03:14:49;100955.13;;;-0.95;87.20
41515;BME280;27247;48.020;16.720;2023-01-29T03:19:28;100965.78;;;-0.99;86.98
41515;BME280;27247;48.020;16.720;2023-01-29T03:23:41;100965.84;;;-1.00;87.01
41515;BME280;27247;48.020;16.720;2023-01-29T03:28:10;100973.78;;;-1.02;87.05
41515;BME280;27247;48.020;16.720;2023-01-29T03:32:42;100969.59;;;-1.06;87.45
41515;BME280;27247;48.020;16.720;2023-01-29T03:36:56;100973.78;;;-1.02;87.63
41515;BME280;27247;48.020;16.720;2023-01-29T03:41:16;100985.31;;;-1.06;86.05
41515;BME280;27247;48.020;16.720;2023-01-29T03:50:23;100972.56;;;-1.13;86.42
41515;BME280;27247;48.020;16.720;2023-01-29T03:55:09;100970.09;;;-1.16;85.24
41515;BME280;27247;48.020;16.720;2023-01-29T03:59:43;100971.78;;;-1.15;85.69
41515;BME280;27247;48.020;16.720;2023-01-29T04:04:08;100963.00;;;-1.14;85.09
41515;BME280;27247;48.020;16.720;2023-01-29T04:08:31;100953.44;;;-1.15;85.19
41515;BME280;27247;48.020;16.720;2023-01-29T04:12:51;100949.28;;;-1.19;84.18
41515;BME280;27247;48.020;16.720;2023-01-29T04:17:15;100949.50;;;-1.24;84.23
41515;BME280;27247;48.020;16.720;2023-01-29T04:21:28;100944.25;;;-1.24;84.08
41515;BME280;27247;48.020;16.720;2023-01-29T04:25:44;100944.38;;;-1.27;83.16
41515;BME280;27247;48.020;16.720;2023-01-29T04:34:27;100939.38;;;-1.32;83.25
41515;BME280;27247;48.020;16.720;2023-01-29T04:39:11;100932.78;;;-1.40;82.51
41515;BME280;27247;48.020;16.720;2023-01-29T04:43:26;100934.94;;;-1.48;82.70
41515;BME280;27247;48.020;16.720;2023-01-29T04:47:55;100939.69;;;-1.56;83.18
41515;BME280;27247;48.020;16.720;2023-01-29T05:01:18;100948.03;;;-1.67;83.59
41515;BME280;27247;48.020;16.720;2023-01-29T05:05:29;100958.38;;;-1.64;83.77
41515;BME280;27247;48.020;16.720;2023-01-29T05:09:42;100950.50;;;-1.64;83.43
41515;BME280;27247;48.020;16.720;2023-01-29T05:13:54;100947.75;;;-1.61;83.21
41515;BME280;27247;48.020;16.720;2023-01-29T05:18:06;100958.03;;;-1.56;83.44
41515;BME280;27247;48.020;16.720;2023-01-29T05:22:18;100955.41;;;-1.56;83.47
41515;BME280;27247;48.020;16.720;2023-01-29T05:26:32;100955.25;;;-1.53;82.91
41515;BME280;27247;48.020;16.720;2023-01-29T05:31:02;100963.13;;;-1.53;82.38
41515;BME280;27247;48.020;16.720;2023-01-29T05:35:12;100958.72;;;-1.53;82.65
41515;BME280;27247;48.020;16.720;2023-01-29T05:39:23;100955.47;;;-1.58;82.77
41515;BME280;27247;48.020;16.720;2023-01-29T05:43:33;100965.59;;;-1.50;82.03
41515;BME280;27247;48.020;16.720;2023-01-29T05:47:44;100964.88;;;-1.54;82.64
41515;BME280;27247;48.020;16.720;2023-01-29T05:51:55;100957.66;;;-1.49;82.38
41515;BME280;27247;48.020;16.720;2023-01-29T05:56:06;100959.84;;;-1.58;82.01
41515;BME280;27247;48.020;16.720;2023-01-29T06:00:16;100972.81;;;-1.55;82.03
41515;BME280;27247;48.020;16.720;2023-01-29T06:04:27;100968.72;;;-1.61;82.06
41515;BME280;27247;48.020;16.720;2023-01-29T06:08:38;100964.53;;;-1.65;82.51
41515;BME280;27247;48.020;16.720;2023-01-29T06:12:49;100950.72;;;-1.69;82.47
41515;BME280;27247;48.020;16.720;2023-01-29T06:16:59;100936.50;;;-1.63;82.51
41515;BME280;27247;48.020;16.720;2023-01-29T06:21:11;100940.88;;;-1.64;82.32
41515;BME280;27247;48.020;16.720;2023-01-29T06:25:21;100949.31;;;-1.76;82.41
41515;BME280;27247;48.020;16.720;2023-01-29T06:29:32;100938.53;;;-1.70;82.77
41515;BME280;27247;48.020;16.720;2023-01-29T06:33:42;100933.16;;;-1.67;83.02
41515;BME280;27247;48.020;16.720;2023-01-29T06:37:53;100931.47;;;-1.68;82.77
41515;BME280;27247;48.020;16.720;2023-01-29T06:42:03;100944.91;;;-1.75;83.33
41515;BME280;27247;48.020;16.720;2023-01-29T06:46:15;100956.25;;;-1.75;83.36
41515;BME280;27247;48.020;16.720;2023-01-29T06:50:25;100951.00;;;-1.75;83.86
41515;BME280;27247;48.020;16.720;2023-01-29T06:54:35;100962.19;;;-1.71;84.17
41515;BME280;27247;48.020;16.720;2023-01-29T06:58:45;100959.34;;;-1.85;82.99
41515;BME280;27247;48.020;16.720;2023-01-29T07:02:56;100973.56;;;-1.91;83.50
41515;BME280;27247;48.020;16.720;2023-01-29T07:07:07;100965.84;;;-1.94;82.90
41515;BME280;27247;48.020;16.720;2023-01-29T07:11:22;100965.84;;;-1.94;83.44
41515;BME280;27247;48.020;16.720;2023-01-29T07:15:32;100969.31;;;-1.94;83.71
41515;BME280;27247;48.020;16.720;2023-01-29T07:19:43;100963.38;;;-1.97;83.34
41515;BME280;27247;48.020;16.720;2023-01-29T07:23:53;100979.81;;;-1.94;83.50
41515;BME280;27247;48.020;16.720;2023-01-29T07:28:04;100974.34;;;-1.89;83.11
41515;BME280;27247;48.020;16.720;2023-01-29T07:32:14;100979.94;;;-1.97;81.61
41515;BME280;27247;48.020;16.720;2023-01-29T07:36:25;100974.31;;;-2.08;80.80
41515;BME280;27247;48.020;16.720;2023-01-29T07:40:36;100982.47;;;-2.15;80.98
41515;BME280;27247;48.020;16.720;2023-01-29T07:44:46;100978.38;;;-2.21;80.85
41515;BME280;27247;48.020;16.720;2023-01-29T07:48:57;100981.25;;;-2.27;80.98
41515;BME280;27247;48.020;16.720;2023-01-29T07:53:13;100960.63;;;-2.35;80.10
41515;BME280;27247;48.020;16.720;2023-01-29T07:57:24;100978.38;;;-2.41;80.75
41515;BME280;27247;48.020;16.720;2023-01-29T08:01:35;100973.06;;;-2.40;80.39
41515;BME280;27247;48.020;16.720;2023-01-29T08:05:45;100977.78;;;-2.28;80.17
41515;BME280;27247;48.020;16.720;2023-01-29T08:09:56;100985.31;;;-2.20;79.34
41515;BME280;27247;48.020;16.720;2023-01-29T08:14:06;100991.06;;;-2.12;78.53
41515;BME280;27247;48.020;16.720;2023-01-29T08:18:18;100976.97;;;-2.09;78.28
41515;BME280;27247;48.020;16.720;2023-01-29T08:22:28;100990.19;;;-2.12;79.04
41515;BME280;27247;48.020;16.720;2023-01-29T08:26:39;100992.91;;;-1.94;78.61
41515;BME280;27247;48.020;16.720;2023-01-29T08:30:49;100992.03;;;-1.94;77.93
41515;BME280;27247;48.020;16.720;2023-01-29T08:34:59;101003.53;;;-1.78;77.44
41515;BME280;27247;48.020;16.720;2023-01-29T08:39:10;100981.44;;;-1.91;76.60
41515;BME280;27247;48.020;16.720;2023-01-29T09:00:22;101016.66;;;-2.18;78.68
41515;BME280;27247;48.020;16.720;2023-01-29T09:04:32;101015.88;;;-2.00;78.14
41515;BME280;27247;48.020;16.720;2023-01-29T09:08:43;101028.38;;;-1.86;78.32
41515;BME280;27247;48.020;16.720;2023-01-29T09:12:53;101029.53;;;-1.73;77.92
41515;BME280;27247;48.020;16.720;2023-01-29T09:17:04;101028.84;;;-1.58;78.41
41515;BME280;27247;48.020;16.720;2023-01-29T09:22:38;101021.97;;;-1.61;76.72
41515;BME280;27247;48.020;16.720;2023-01-29T09:26:48;101021.13;;;-1.61;76.27
41515;BME280;27247;48.020;16.720;2023-01-29T09:31:01;101026.28;;;-1.59;77.28
41515;BME280;27247;48.020;16.720;2023-01-29T09:35:12;101031.13;;;-1.50;77.56
41515;BME280;27247;48.020;16.720;2023-01-29T09:39:22;101035.16;;;-1.43;77.47
41515;BME280;27247;48.020;16.720;2023-01-29T09:43:46;101041.69;;;-1.33;76.34
41515;BME280;27247;48.020;16.720;2023-01-29T09:48:01;101022.97;;;-1.25;76.16
41515;BME280;27247;48.020;16.720;2023-01-29T09:52:25;101025.66;;;-1.27;76.04
41515;BME280;27247;48.020;16.720;2023-01-29T09:56:36;101029.56;;;-1.17;76.16
41515;BME280;27247;48.020;16.720;2023-01-29T10:00:56;101024.25;;;-1.34;75.80
41515;BME280;27247;48.020;16.720;2023-01-29T10:14:51;101022.88;;;-1.05;76.58
41515;BME280;27247;48.020;16.720;2023-01-29T10:23:33;101013.72;;;-0.78;73.84
41515;BME280;27247;48.020;16.720;2023-01-29T10:27:48;101011.03;;;-0.76;74.49
41515;BME280;27247;48.020;16.720;2023-01-29T10:32:01;101006.94;;;-0.82;74.97
41515;BME280;27247;48.020;16.720;2023-01-29T10:36:20;101000.56;;;-0.59;73.75
41515;BME280;27247;48.020;16.720;2023-01-29T10:40:39;100996.53;;;-0.66;73.75
41515;BME280;27247;48.020;16.720;2023-01-29T10:49:40;100981.56;;;-0.47;73.94
41515;BME280;27247;48.020;16.720;2023-01-29T10:58:51;100980.09;;;-0.35;72.73
41515;BME280;27247;48.020;16.720;2023-01-29T11:03:25;100976.78;;;-0.39;72.60
41515;BME280;27247;48.020;16.720;2023-01-29T11:07:36;100964.63;;;-0.24;73.63
41515;BME280;27247;48.020;16.720;2023-01-29T11:11:53;100964.53;;;-0.05;71.76
41515;BME280;27247;48.020;16.720;2023-01-29T11:16:07;100965.56;;;0.25;73.10
41515;BME280;27247;48.020;16.720;2023-01-29T11:20:26;100959.13;;;0.47;71.26
41515;BME280;27247;48.020;16.720;2023-01-29T11:24:37;100946.16;;;0.28;71.07
41515;BME280;27247;48.020;16.720;2023-01-29T11:28:49;100936.69;;;0.08;70.70
41515;BME280;27247;48.020;16.720;2023-01-29T11:37:38;100929.88;;;-0.29;72.25
41515;BME280;27247;48.020;16.720;2023-01-29T11:41:53;100909.34;;;-0.38;72.06
41515;BME280;27247;48.020;16.720;2023-01-29T11:46:11;100894.72;;;-0.26;72.42
41515;BME280;27247;48.020;16.720;2023-01-29T11:50:25;100887.41;;;-0.04;71.06
41515;BME280;27247;48.020;16.720;2023-01-29T11:54:39;100886.44;;;0.14;69.98
41515;BME280;27247;48.020;16.720;2023-01-29T11:58:54;100883.09;;;-0.05;70.67
41515;BME280;27247;48.020;16.720;2023-01-29T12:03:15;100881.56;;;-0.09;71.25
41515;BME280;27247;48.020;16.720;2023-01-29T12:07:29;100861.44;;;0.23;71.12
41515;BME280;27247;48.020;16.720;2023-01-29T12:11:40;100855.81;;;0.60;69.82
41515;BME280;27247;48.020;16.720;2023-01-29T12:16:10;100833.34;;;0.55;68.89
41515;BME280;27247;48.020;16.720;2023-01-29T12:20:27;100836.13;;;0.68;68.70
41515;BME280;27247;48.020;16.720;2023-01-29T12:29:31;100820.34;;;0.68;69.25
41515;BME280;27247;48.020;16.720;2023-01-29T12:33:55;100813.78;;;0.45;69.05
41515;BME280;27247;48.020;16.720;2023-01-29T12:38:19;100811.84;;;0.32;69.94
41515;BME280;27247;48.020;16.720;2023-01-29T12:42:31;100811.19;;;0.59;70.03
41515;BME280;27247;48.020;16.720;2023-01-29T12:46:53;100799.75;;;0.90;69.01
41515;BME280;27247;48.020;16.720;2023-01-29T12:51:18;100794.78;;;1.00;67.44
41515;BME280;27247;48.020;16.720;2023-01-29T12:55:40;100790.22;;;1.17;68.22
41515;BME280;27247;48.020;16.720;2023-01-29T12:59:58;100791.09;;;1.32;67.45
41515;BME280;27247;48.020;16.720;2023-01-29T13:04:15;100783.91;;;1.06;67.64
41515;BME280;27247;48.020;16.720;2023-01-29T13:13:03;100774.13;;;0.18;69.92
41515;BME280;27247;48.020;16.720;2023-01-29T13:17:35;100766.41;;;-0.01;71.22
41515;BME280;27247;48.020;16.720;2023-01-29T13:21:47;100762.34;;;-0.07;71.55
41515;BME280;27247;48.020;16.720;2023-01-29T13:25:58;100767.84;;;-0.27;72.56
41515;BME280;27247;48.020;16.720;2023-01-29T13:30:27;100766.53;;;-0.51;73.88
41515;BME280;27247;48.020;16.720;2023-01-29T13:34:46;100759.44;;;-0.49;74.21
41515;BME280;27247;48.020;16.720;2023-01-29T13:39:04;100753.81;;;-0.59;73.78
41515;BME280;27247;48.020;16.720;2023-01-29T13:43:20;100758.72;;;-0.69;73.66
41515;BME280;27247;48.020;16.720;2023-01-29T13:47:37;100746.94;;;-0.77;74.41
41515;BME280;27247;48.020;16.720;2023-01-29T13:51:48;100747.25;;;-0.83;74.68
41515;BME280;27247;48.020;16.720;2023-01-29T13:56:27;100741.56;;;-0.91;75.09
41515;BME280;27247;48.020;16.720;2023-01-29T14:04:48;100747.28;;;-1.01;75.63
41515;BME280;27247;48.020;16.720;2023-01-29T14:08:59;100750.38;;;-1.10;76.60
41515;BME280;27247;48.020;16.720;2023-01-29T14:17:33;100735.31;;;-1.06;77.38
41515;BME280;27247;48.020;16.720;2023-01-29T14:21:49;100735.25;;;-1.05;77.80
41515;BME280;27247;48.020;16.720;2023-01-29T14:26:02;100750.00;;;-1.02;77.75
41515;BME280;27247;48.020;16.720;2023-01-29T14:30:16;100749.44;;;-1.09;77.52
41515;BME280;27247;48.020;16.720;2023-01-29T14:38:53;100751.38;;;-1.12;78.53
41515;BME280;27247;48.020;16.720;2023-01-29T14:43:07;100744.19;;;-1.09;78.32
41515;BME280;27247;48.020;16.720;2023-01-29T14:51:44;100745.28;;;-1.13;78.63
41515;BME280;27247;48.020;16.720;2023-01-29T14:56:25;100749.16;;;-1.20;78.12
41515;BME280;27247;48.020;16.720;2023-01-29T15:00:38;100746.84;;;-1.26;78.30
41515;BME280;27247;48.020;16.720;2023-01-29T15:04:57;100745.53;;;-1.35;78.49
41515;BME280;27247;48.020;16.720;2023-01-29T15:18:19;100741.91;;;-1.49;78.56
41515;BME280;27247;48.020;16.720;2023-01-29T15:22:41;100744.69;;;-1.52;78.52
41515;BME280;27247;48.020;16.720;2023-01-29T15:26:53;100747.53;;;-1.57;78.82
41515;BME280;27247;48.020;16.720;2023-01-29T15:31:06;100756.69;;;-1.66;78.99
41515;BME280;27247;48.020;16.720;2023-01-29T15:35:34;100762.53;;;-1.78;79.40
41515;BME280;27247;48.020;16.720;2023-01-29T15:39:46;100768.16;;;-1.85;79.72
41515;BME280;27247;48.020;16.720;2023-01-29T15:43:59;100752.72;;;-1.91;79.83
41515;BME280;27247;48.020;16.720;2023-01-29T15:48:17;100764.28;;;-1.96;80.15
41515;BME280;27247;48.020;16.720;2023-01-29T15:52:30;100766.34;;;-2.02;80.18
41515;BME280;27247;48.020;16.720;2023-01-29T15:56:55;100763.28;;;-2.12;80.24
41515;BME280;27247;48.020;16.720;2023-01-29T16:01:07;100758.25;;;-2.16;80.55
41515;BME280;27247;48.020;16.720;2023-01-29T16:05:25;100760.66;;;-2.31;80.84
41515;BME280;27247;48.020;16.720;2023-01-29T16:09:37;100771.84;;;-2.27;81.26
41515;BME280;27247;48.020;16.720;2023-01-29T16:13:48;100770.78;;;-2.23;81.21
41515;BME280;27247;48.020;16.720;2023-01-29T16:18:02;100781.09;;;-2.20;81.67
41515;BME280;27247;48.020;16.720;2023-01-29T16:22:14;100781.81;;;-2.16;81.87
41515;BME280;27247;48.020;16.720;2023-01-29T16:26:28;100781.97;;;-2.01;81.85
41515;BME280;27247;48.020;16.720;2023-01-29T16:30:41;100787.84;;;-2.33;79.46
41515;BME280;27247;48.020;16.720;2023-01-29T16:34:55;100788.75;;;-2.34;79.51
41515;BME280;27247;48.020;16.720;2023-01-29T16:39:17;100783.25;;;-2.28;79.91
41515;BME280;27247;48.020;16.720;2023-01-29T16:48:29;100791.09;;;-2.28;79.96
41515;BME280;27247;48.020;16.720;2023-01-29T16:52:54;100791.50;;;-2.18;79.91
41515;BME280;27247;48.020;16.720;2023-01-29T16:57:13;100795.13;;;-2.21;80.64
41515;BME280;27247;48.020;16.720;2023-01-29T17:01:27;100789.19;;;-2.06;80.84
41515;BME280;27247;48.020;16.720;2023-01-29T17:05:39;100794.91;;;-1.98;81.23
41515;BME280;27247;48.020;16.720;2023-01-29T17:09:53;100795.47;;;-1.91;81.20
41515;BME280;27247;48.020;16.720;2023-01-29T17:14:07;100792.78;;;-1.89;81.34
41515;BME280;27247;48.020;16.720;2023-01-29T17:18:20;100788.91;;;-2.00;80.67
41515;BME280;27247;48.020;16.720;2023-01-29T17:22:31;100773.41;;;-2.04;80.08
41515;BME280;27247;48.020;16.720;2023-01-29T17:26:42;100769.50;;;-2.33;77.50
41515;BME280;27247;48.020;16.720;2023-01-29T17:30:53;100769.78;;;-2.39;78.03
41515;BME280;27247;48.020;16.720;2023-01-29T17:35:04;100762.84;;;-2.59;79.25
41515;BME280;27247;48.020;16.720;2023-01-29T17:39:20;100761.94;;;-2.58;80.29
41515;BME280;27247;48.020;16.720;2023-01-29T17:43:34;100774.09;;;-2.57;80.53
41515;BME280;27247;48.020;16.720;2023-01-29T17:47:45;100768.16;;;-2.61;80.67
41515;BME280;27247;48.020;16.720;2023-01-29T17:51:57;100765.69;;;-2.64;81.46
41515;BME280;27247;48.020;16.720;2023-01-29T17:56:37;100750.28;;;-2.70;81.94
41515;BME280;27247;48.020;16.720;2023-01-29T18:00:49;100751.41;;;-2.75;81.83
41515;BME280;27247;48.020;16.720;2023-01-29T18:05:00;100745.59;;;-2.82;81.25
41515;BME280;27247;48.020;16.720;2023-01-29T18:09:15;100728.28;;;-2.84;81.77
41515;BME280;27247;48.020;16.720;2023-01-29T18:13:28;100716.31;;;-2.90;82.25
41515;BME280;27247;48.020;16.720;2023-01-29T18:17:39;100716.25;;;-2.88;82.55
41515;BME280;27247;48.020;16.720;2023-01-29T18:21:50;100712.31;;;-2.78;81.25
41515;BME280;27247;48.020;16.720;2023-01-29T18:26:02;100719.72;;;-2.88;80.74
41515;BME280;27247;48.020;16.720;2023-01-29T18:30:13;100709.47;;;-3.13;81.15
41515;BME280;27247;48.020;16.720;2023-01-29T18:34:24;100706.81;;;-3.32;81.04
41515;BME280;27247;48.020;16.720;2023-01-29T18:38:34;100714.84;;;-3.36;81.24
41515;BME280;27247;48.020;16.720;2023-01-29T18:42:46;100711.06;;;-3.49;80.56
41515;BME280;27247;48.020;16.720;2023-01-29T18:46:56;100708.44;;;-3.70;81.26
41515;BME280;27247;48.020;16.720;2023-01-29T18:51:07;100718.16;;;-3.73;80.74
41515;BME280;27247;48.020;16.720;2023-01-29T18:55:18;100707.84;;;-3.76;80.46
41515;BME280;27247;48.020;16.720;2023-01-29T18:59:31;100710.16;;;-3.69;80.61
41515;BME280;27247;48.020;16.720;2023-01-29T19:03:41;100693.59;;;-3.90;80.15
41515;BME280;27247;48.020;16.720;2023-01-29T19:07:52;100697.44;;;-3.98;80.69
41515;BME280;27247;48.020;16.720;2023-01-29T19:12:05;100706.59;;;-4.32;81.36
41515;BME280;27247;48.020;16.720;2023-01-29T19:16:16;100699.38;;;-4.25;80.89
41515;BME280;27247;48.020;16.720;2023-01-29T19:20:29;100691.66;;;-4.28;81.31
41515;BME280;27247;48.020;16.720;2023-01-29T19:24:39;100684.25;;;-4.17;82.28
41515;BME280;27247;48.020;16.720;2023-01-29T19:28:51;100675.25;;;-4.08;84.12
41515;BME280;27247;48.020;16.720;2023-01-29T19:33:02;100679.28;;;-4.23;83.82
41515;BME280;27247;48.020;16.720;2023-01-29T19:37:13;100661.03;;;-4.23;83.75
41515;BME280;27247;48.020;16.720;2023-01-29T19:41:24;100663.34;;;-4.15;83.86
41515;BME280;27247;48.020;16.720;2023-01-29T19:45:35;100658.84;;;-4.34;83.10
41515;BME280;27247;48.020;16.720;2023-01-29T19:49:46;100665.56;;;-4.28;82.84
41515;BME280;27247;48.020;16.720;2023-01-29T19:53:57;100660.91;;;-4.20;81.02
41515;BME280;27247;48.020;16.720;2023-01-29T19:58:08;100661.28;;;-4.29;82.06
41515;BME280;27247;48.020;16.720;2023-01-29T20:02:19;100655.94;;;-4.26;82.35
41515;BME280;27247;48.020;16.720;2023-01-29T20:06:30;100650.00;;;-4.30;83.33
41515;BME280;27247;48.020;16.720;2023-01-29T20:10:44;100660.38;;;-4.28;82.77
41515;BME280;27247;48.020;16.720;2023-01-29T20:14:56;100656.38;;;-4.37;83.76
41515;BME280;27247;48.020;16.720;2023-01-29T20:19:06;100662.38;;;-4.35;84.81
41515;BME280;27247;48.020;16.720;2023-01-29T20:23:18;100667.94;;;-4.44;84.72
41515;BME280;27247;48.020;16.720;2023-01-29T20:27:29;100669.88;;;-4.49;83.88
41515;BME280;27247;48.020;16.720;2023-01-29T20:31:40;100671.22;;;-4.61;83.97
41515;BME280;27247;48.020;16.720;2023-01-29T20:35:58;100673.03;;;-4.63;83.34
41515;BME280;27247;48.020;16.720;2023-01-29T20:40:12;100665.09;;;-5.05;82.17
41515;BME280;27247;48.020;16.720;2023-01-29T20:44:25;100659.66;;;-5.24;82.69
41515;BME280;27247;48.020;16.720;2023-01-29T20:48:36;100664.69;;;-5.42;82.78
41515;BME280;27247;48.020;16.720;2023-01-29T20:52:47;100669.16;;;-5.46;82.42
41515;BME280;27247;48.020;16.720;2023-01-29T20:56:58;100660.56;;;-5.48;83.71
41515;BME280;27247;48.020;16.720;2023-01-29T21:01:10;100661.28;;;-5.44;82.48
41515;BME280;27247;48.020;16.720;2023-01-29T21:05:22;100653.56;;;-5.71;84.52
41515;BME280;27247;48.020;16.720;2023-01-29T21:09:32;100647.72;;;-5.78;86.93
41515;BME280;27247;48.020;16.720;2023-01-29T21:13:45;100657.22;;;-5.76;88.31
41515;BME280;27247;48.020;16.720;2023-01-29T21:17:56;100649.25;;;-5.72;89.49
41515;BME280;27247;48.020;16.720;2023-01-29T21:22:08;100647.50;;;-5.71;89.44
41515;BME280;27247;48.020;16.720;2023-01-29T21:26:19;100648.56;;;-5.77;88.32
41515;BME280;27247;48.020;16.720;2023-01-29T21:30:29;100647.22;;;-5.89;87.85
41515;BME280;27247;48.020;16.720;2023-01-29T21:34:40;100651.25;;;-5.80;88.36
41515;BME280;27247;48.020;16.720;2023-01-29T21:38:51;100644.81;;;-5.93;87.25
41515;BME280;27247;48.020;16.720;2023-01-29T21:43:02;100646.66;;;-5.97;86.36
41515;BME280;27247;48.020;16.720;2023-01-29T21:47:22;100641.28;;;-6.17;83.47
41515;BME280;27247;48.020;16.720;2023-01-29T21:51:33;100635.97;;;-6.14;83.36
41515;BME280;27247;48.020;16.720;2023-01-29T21:55:44;100638.69;;;-6.17;83.01
41515;BME280;27247;48.020;16.720;2023-01-29T21:59:54;100636.53;;;-6.04;83.56
41515;BME280;27247;48.020;16.720;2023-01-29T22:04:06;100631.06;;;-5.97;83.62
41515;BME280;27247;48.020;16.720;2023-01-29T22:08:18;100621.72;;;-6.02;83.80
41515;BME280;27247;48.020;16.720;2023-01-29T22:12:29;100613.53;;;-6.17;85.25
41515;BME280;27247;48.020;16.720;2023-01-29T22:16:40;100618.09;;;-6.25;84.95
41515;BME280;27247;48.020;16.720;2023-01-29T22:20:54;100604.44;;;-6.31;84.34
41515;BME280;27247;48.020;16.720;2023-01-29T22:25:05;100611.25;;;-6.27;84.40
41515;BME280;27247;48.020;16.720;2023-01-29T22:29:15;100602.38;;;-6.20;83.92
41515;BME280;27247;48.020;16.720;2023-01-29T22:33:29;100606.56;;;-6.16;83.58
41515;BME280;27247;48.020;16.720;2023-01-29T22:37:39;100603.88;;;-6.13;83.00
41515;BME280;27247;48.020;16.720;2023-01-29T22:41:49;100593.78;;;-6.22;81.89
41515;BME280;27247;48.020;16.720;2023-01-29T22:46:00;100582.94;;;-6.36;81.28
41515;BME280;27247;48.020;16.720;2023-01-29T22:50:11;100582.81;;;-6.32;81.17
41515;BME280;27247;48.020;16.720;2023-01-29T22:54:21;100578.75;;;-6.40;81.04
41515;BME280;27247;48.020;16.720;2023-01-29T22:58:32;100567.50;;;-6.41;81.35
41515;BME280;27247;48.020;16.720;2023-01-29T23:02:42;100556.66;;;-6.27;80.93
41515;BME280;27247;48.020;16.720;2023-01-29T23:06:53;100560.16;;;-6.28;81.18
41515;BME280;27247;48.020;16.720;2023-01-29T23:11:06;100544.81;;;-6.36;82.04
41515;BME280;27247;48.020;16.720;2023-01-29T23:15:22;100530.84;;;-6.33;82.97
41515;BME280;27247;48.020;16.720;2023-01-29T23:19:33;100525.16;;;-6.45;82.09
41515;BME280;27247;48.020;16.720;2023-01-29T23:23:43;100535.13;;;-6.57;81.38
41515;BME280;27247;48.020;16.720;2023-01-29T23:27:54;100524.56;;;-6.53;81.32
41515;BME280;27247;48.020;16.720;2023-01-29T23:32:05;100522.34;;;-6.63;80.69
41515;BME280;27247;48.020;16.720;2023-01-29T23:36:16;100525.69;;;-6.60;81.20
41515;BME280;27247;48.020;16.720;2023-01-29T23:40:26;100520.69;;;-6.66;80.80
41515;BME280;27247;48.020;16.720;2023-01-29T23:44:37;100525.72;;;-6.61;80.50
41515;BME280;27247;48.020;16.720;2023-01-29T23:48:49;100529.47;;;-6.70;79.82
41515;BME280;27247;48.020;16.720;2023-01-29T23:52:59;100519.09;;;-6.96;77.14